createdAt,value
2019-01-24T00:00:38.156Z,16.1
2019-01-24T00:01:40.586Z,16
2019-01-24T00:02:42.757Z,16
2019-01-24T00:03:45.182Z,16
2019-01-24T00:04:47.610Z,16
2019-01-24T00:05:50.055Z,15.9
2019-01-24T00:06:52.196Z,15.9
2019-01-24T00:07:54.632Z,15.9
2019-01-24T00:08:57.055Z,16
2019-01-24T00:09:59.486Z,16.1
2019-01-24T00:11:01.404Z,16
2019-01-24T00:12:03.832Z,15.9
2019-01-24T00:13:06.264Z,16.1
2019-01-24T00:14:08.424Z,16.1
2019-01-24T00:15:10.922Z,16.2
2019-01-24T00:16:13.145Z,15.9
2019-01-24T00:17:15.422Z,16.1
2019-01-24T00:18:17.077Z,15.9
2019-01-24T00:19:19.100Z,15.9
2019-01-24T00:20:21.256Z,16.1
2019-01-24T00:21:23.686Z,16.1
2019-01-24T00:22:26.116Z,16
2019-01-24T00:23:27.704Z,16.1
2019-01-24T00:24:29.596Z,16
2019-01-24T00:25:32.015Z,16.1
2019-01-24T00:26:34.464Z,16
2019-01-24T00:27:36.895Z,16.1
2019-01-24T00:28:39.034Z,15.9
2019-01-24T00:29:41.471Z,16.1
2019-01-24T00:30:43.887Z,16
2019-01-24T00:31:46.361Z,16.1
2019-01-24T00:32:48.825Z,16.1
2019-01-24T00:33:50.689Z,16.1
2019-01-24T00:34:53.114Z,16.1
2019-01-24T00:35:55.539Z,16.1
2019-01-24T00:36:57.960Z,16.1
2019-01-24T00:38:00.115Z,16.1
2019-01-24T00:39:02.281Z,16.1
2019-01-24T00:40:04.434Z,16.2
2019-01-24T00:41:06.859Z,16.1
2019-01-24T00:42:09.298Z,16.1
2019-01-24T00:43:11.746Z,16.2
2019-01-24T00:44:15.600Z,16.1
2019-01-24T00:45:17.764Z,16.1
2019-01-24T00:46:20.181Z,16.2
2019-01-24T00:47:22.333Z,16.1
2019-01-24T00:48:24.760Z,16.1
2019-01-24T00:49:27.187Z,16.1
2019-01-24T00:50:29.346Z,16.1
2019-01-24T00:51:31.789Z,16.2
2019-01-24T00:52:34.215Z,16.1
2019-01-24T00:53:36.382Z,16.1
2019-01-24T00:54:38.831Z,16.1
2019-01-24T00:55:41.255Z,16.2
2019-01-24T00:56:43.127Z,16.1
2019-01-24T00:57:45.006Z,16.2
2019-01-24T00:58:47.433Z,16.2
2019-01-24T00:59:49.864Z,16.1
2019-01-24T01:00:52.012Z,16.2
2019-01-24T01:01:54.145Z,16.2
2019-01-24T01:02:56.313Z,16.2
2019-01-24T01:03:58.744Z,16.2
2019-01-24T01:05:01.175Z,16.2
2019-01-24T01:06:03.600Z,16.2
2019-01-24T01:07:05.753Z,16.2
2019-01-24T01:08:08.188Z,16.2
2019-01-24T01:09:10.333Z,16.2
2019-01-24T01:10:12.483Z,16.2
2019-01-24T01:11:14.638Z,16.2
2019-01-24T01:12:16.797Z,16.2
2019-01-24T01:13:18.679Z,16.2
2019-01-24T01:14:20.830Z,16.2
2019-01-24T01:15:22.982Z,16.2
2019-01-24T01:16:24.854Z,16.2
2019-01-24T01:17:27.026Z,16.2
2019-01-24T01:18:29.445Z,16.2
2019-01-24T01:19:31.333Z,16.2
2019-01-24T01:20:33.490Z,16.3
2019-01-24T01:21:35.928Z,16.2
2019-01-24T01:22:38.095Z,16.2
2019-01-24T01:23:40.521Z,16.2
2019-01-24T01:24:42.677Z,16.2
2019-01-24T01:25:45.112Z,16.3
2019-01-24T01:26:47.553Z,16.3
2019-01-24T01:27:49.445Z,16.2
2019-01-24T01:28:51.883Z,16.3
2019-01-24T01:29:54.035Z,16.3
2019-01-24T01:30:56.461Z,16.3
2019-01-24T01:31:58.891Z,16.4
2019-01-24T01:33:01.323Z,16.3
2019-01-24T01:34:03.745Z,16.3
2019-01-24T01:35:05.911Z,16.4
2019-01-24T01:36:07.813Z,16.3
2019-01-24T01:37:10.246Z,16.3
2019-01-24T01:38:12.665Z,16.4
2019-01-24T01:39:14.825Z,16.3
2019-01-24T01:40:16.714Z,16.3
2019-01-24T01:41:18.863Z,16.3
2019-01-24T01:42:21.041Z,16.4
2019-01-24T01:43:23.473Z,16.3
2019-01-24T01:44:25.894Z,16.3
2019-01-24T01:45:28.319Z,16.3
2019-01-24T01:46:30.743Z,16.4
2019-01-24T01:47:33.193Z,16.3
2019-01-24T01:48:35.064Z,16.3
2019-01-24T01:49:37.513Z,16.3
2019-01-24T01:50:39.943Z,16.4
2019-01-24T01:51:42.375Z,16.4
2019-01-24T01:52:44.242Z,16.4
2019-01-24T01:53:46.403Z,16.5
2019-01-24T01:54:48.839Z,16.4
2019-01-24T01:55:51.259Z,16.4
2019-01-24T01:56:53.698Z,16.4
2019-01-24T01:57:56.123Z,16.5
2019-01-24T01:58:58.013Z,16.4
2019-01-24T02:00:00.497Z,16.4
2019-01-24T02:01:02.914Z,16.5
2019-01-24T02:02:05.349Z,16.4
2019-01-24T02:03:07.220Z,16.4
2019-01-24T02:04:09.375Z,16.4
2019-01-24T02:05:11.505Z,16.5
2019-01-24T02:06:13.928Z,16.5
2019-01-24T02:07:16.351Z,16.5
2019-01-24T02:08:18.504Z,16.5
2019-01-24T02:09:20.926Z,16.6
2019-01-24T02:10:23.076Z,16.5
2019-01-24T02:11:25.225Z,16.4
2019-01-24T02:12:27.651Z,16.5
2019-01-24T02:13:30.087Z,16.4
2019-01-24T02:14:32.243Z,16.4
2019-01-24T02:15:34.671Z,16.5
2019-01-24T02:16:37.099Z,16.5
2019-01-24T02:17:38.977Z,16.6
2019-01-24T02:18:41.401Z,16.6
2019-01-24T02:19:43.563Z,16.4
2019-01-24T02:20:46.000Z,16.6
2019-01-24T02:21:48.419Z,16.6
2019-01-24T02:22:50.857Z,16.6
2019-01-24T02:23:53.005Z,16.6
2019-01-24T02:24:55.443Z,16.6
2019-01-24T02:25:57.594Z,16.5
2019-01-24T02:27:00.030Z,16.6
2019-01-24T02:28:02.454Z,16.5
2019-01-24T02:29:04.888Z,16.5
2019-01-24T02:30:07.049Z,16.6
2019-01-24T02:31:09.477Z,16.5
2019-01-24T02:32:11.895Z,16.6
2019-01-24T02:33:13.488Z,16.4
2019-01-24T02:34:15.653Z,16.5
2019-01-24T02:35:18.081Z,16.5
2019-01-24T02:36:20.235Z,16.6
2019-01-24T02:37:22.113Z,16.6
2019-01-24T02:38:24.544Z,16.6
2019-01-24T02:39:26.431Z,16.5
2019-01-24T02:40:28.596Z,16.5
2019-01-24T02:41:31.013Z,16.5
2019-01-24T02:42:33.168Z,16.6
2019-01-24T02:43:35.315Z,16.6
2019-01-24T02:44:37.484Z,16.5
2019-01-24T02:45:39.914Z,16.6
2019-01-24T02:46:42.343Z,16.6
2019-01-24T02:47:44.761Z,16.6
2019-01-24T02:48:47.214Z,16.6
2019-01-24T02:49:49.372Z,16.6
2019-01-24T02:50:51.534Z,16.6
2019-01-24T02:51:53.392Z,16.6
2019-01-24T02:52:55.555Z,16.7
2019-01-24T02:53:57.157Z,16.6
2019-01-24T02:54:59.323Z,16.7
2019-01-24T02:56:01.745Z,16.6
2019-01-24T02:57:04.169Z,16.6
2019-01-24T02:58:06.592Z,16.6
2019-01-24T02:59:09.021Z,16.7
2019-01-24T03:00:11.159Z,16.6
2019-01-24T03:01:13.594Z,16.6
2019-01-24T03:02:16.015Z,16.5
2019-01-24T03:03:18.161Z,16.6
2019-01-24T03:04:20.585Z,16.7
2019-01-24T03:05:22.465Z,16.7
2019-01-24T03:06:24.884Z,16.6
2019-01-24T03:07:26.769Z,16.6
2019-01-24T03:08:28.946Z,16.7
2019-01-24T03:09:31.105Z,16.6
2019-01-24T03:10:33.535Z,16.7
2019-01-24T03:11:35.959Z,16.6
2019-01-24T03:12:38.376Z,16.6
2019-01-24T03:13:40.531Z,16.6
2019-01-24T03:14:42.404Z,16.6
2019-01-24T03:15:44.829Z,16.6
2019-01-24T03:16:46.961Z,16.7
2019-01-24T03:17:49.395Z,16.7
2019-01-24T03:18:51.541Z,16.6
2019-01-24T03:19:53.966Z,16.7
2019-01-24T03:20:56.390Z,16.6
2019-01-24T03:21:58.815Z,16.7
2019-01-24T03:23:00.718Z,16.6
2019-01-24T03:24:02.873Z,16.6
2019-01-24T03:25:05.297Z,16.7
2019-01-24T03:26:07.718Z,16.7
2019-01-24T03:27:10.145Z,16.6
2019-01-24T03:28:12.314Z,16.7
2019-01-24T03:29:14.737Z,16.7
2019-01-24T03:30:17.174Z,16.6
2019-01-24T03:31:19.656Z,16.7
2019-01-24T03:32:22.081Z,16.7
2019-01-24T03:33:24.518Z,16.6
2019-01-24T03:34:26.653Z,16.7
2019-01-24T03:35:28.799Z,16.6
2019-01-24T03:36:30.957Z,16.6
2019-01-24T03:37:33.375Z,16.6
2019-01-24T03:38:35.795Z,16.7
2019-01-24T03:39:38.236Z,16.6
2019-01-24T03:40:40.662Z,16.6
2019-01-24T03:41:42.833Z,16.6
2019-01-24T03:42:45.260Z,16.7
2019-01-24T03:43:47.409Z,16.6
2019-01-24T03:44:49.288Z,16.5
2019-01-24T03:45:51.445Z,16.5
2019-01-24T03:46:53.332Z,16.6
2019-01-24T03:47:55.477Z,16.7
2019-01-24T03:48:57.903Z,16.5
2019-01-24T03:50:00.346Z,16.6
2019-01-24T03:51:02.527Z,16.7
2019-01-24T03:52:04.951Z,16.6
2019-01-24T03:53:07.374Z,16.6
2019-01-24T03:54:09.801Z,16.7
2019-01-24T03:55:12.226Z,16.6
2019-01-24T03:56:14.653Z,16.6
2019-01-24T03:57:17.081Z,16.6
2019-01-24T03:58:19.236Z,16.6
2019-01-24T03:59:21.677Z,16.7
2019-01-24T04:00:24.116Z,16.7
2019-01-24T04:01:26.263Z,16.6
2019-01-24T04:02:28.699Z,16.6
2019-01-24T04:03:31.131Z,16.7
2019-01-24T04:04:33.263Z,16.7
2019-01-24T04:05:35.685Z,16.6
2019-01-24T04:06:38.101Z,16.6
2019-01-24T04:07:40.253Z,16.6
2019-01-24T04:08:42.684Z,16.6
2019-01-24T04:09:44.831Z,16.6
2019-01-24T04:10:47.261Z,16.6
2019-01-24T04:11:49.687Z,16.6
2019-01-24T04:12:51.834Z,16.7
2019-01-24T04:13:54.298Z,16.6
2019-01-24T04:14:56.702Z,16.6
2019-01-24T04:15:58.880Z,16.6
2019-01-24T04:17:01.313Z,16.5
2019-01-24T04:18:03.741Z,16.6
2019-01-24T04:19:05.891Z,16.5
2019-01-24T04:20:08.326Z,16.4
2019-01-24T04:21:10.743Z,16.6
2019-01-24T04:22:13.169Z,16.5
2019-01-24T04:23:15.340Z,16.5
2019-01-24T04:24:17.193Z,16.5
2019-01-24T04:25:19.500Z,16.5
2019-01-24T04:26:21.945Z,16.4
2019-01-24T04:27:24.449Z,16.6
2019-01-24T04:28:26.630Z,16.5
2019-01-24T04:29:28.578Z,16.5
2019-01-24T04:30:31.054Z,16.4
2019-01-24T04:31:33.477Z,16.5
2019-01-24T04:32:35.915Z,16.3
2019-01-24T04:33:38.387Z,16.4
2019-01-24T04:34:40.554Z,16.4
2019-01-24T04:35:42.981Z,16.5
2019-01-24T04:36:45.151Z,16.5
2019-01-24T04:37:47.030Z,16.5
2019-01-24T04:38:49.163Z,16.5
2019-01-24T04:39:51.588Z,16.5
2019-01-24T04:40:53.484Z,16.4
2019-01-24T04:41:55.640Z,16.5
2019-01-24T04:42:58.053Z,16.3
2019-01-24T04:44:00.217Z,16.4
2019-01-24T04:45:02.373Z,16.4
2019-01-24T04:46:04.791Z,16.5
2019-01-24T04:47:07.209Z,16.4
2019-01-24T04:48:09.361Z,16.3
2019-01-24T04:49:11.786Z,16.4
2019-01-24T04:50:13.931Z,16.4
2019-01-24T04:51:16.354Z,16.4
2019-01-24T04:52:18.784Z,16.4
2019-01-24T04:53:20.931Z,16.4
2019-01-24T04:54:23.363Z,16.4
2019-01-24T04:55:25.495Z,16.3
2019-01-24T04:56:27.660Z,16.4
2019-01-24T04:57:30.094Z,16.3
2019-01-24T04:58:32.262Z,16.3
2019-01-24T04:59:34.694Z,16.3
2019-01-24T05:00:36.863Z,16.2
2019-01-24T05:01:38.743Z,16.3
2019-01-24T05:02:41.175Z,16.3
2019-01-24T05:03:43.329Z,16.3
2019-01-24T05:04:45.742Z,16.3
2019-01-24T05:05:47.905Z,16.3
2019-01-24T05:06:50.328Z,16.3
2019-01-24T05:07:52.217Z,16.3
2019-01-24T05:08:54.642Z,16.3
2019-01-24T05:09:57.073Z,16.3
2019-01-24T05:10:59.489Z,16.3
2019-01-24T05:12:01.916Z,16.2
2019-01-24T05:13:04.346Z,16.3
2019-01-24T05:14:06.772Z,16.3
2019-01-24T05:15:09.196Z,16.3
2019-01-24T05:16:11.617Z,16.3
2019-01-24T05:17:14.036Z,16.3
2019-01-24T05:18:16.467Z,16.2
2019-01-24T05:19:18.894Z,16.3
2019-01-24T05:20:21.031Z,16.3
2019-01-24T05:21:22.893Z,16.2
2019-01-24T05:22:25.314Z,16.2
2019-01-24T05:23:27.765Z,16.3
2019-01-24T05:24:29.918Z,16.2
2019-01-24T05:25:32.340Z,16.2
2019-01-24T05:26:34.774Z,16.2
2019-01-24T05:27:36.933Z,16.2
2019-01-24T05:28:39.392Z,16.2
2019-01-24T05:29:41.558Z,16.2
2019-01-24T05:30:43.727Z,16.2
2019-01-24T05:31:45.587Z,16.2
2019-01-24T05:32:46.949Z,16.2
2019-01-24T05:33:49.376Z,16.2
2019-01-24T05:34:51.801Z,16.2
2019-01-24T05:35:53.939Z,16.2
2019-01-24T05:36:56.102Z,16.3
2019-01-24T05:37:58.245Z,16.2
2019-01-24T05:39:00.114Z,16.1
2019-01-24T05:41:10.925Z,16.3
2019-01-24T05:42:13.056Z,16.1
2019-01-24T05:43:15.211Z,16.2
2019-01-24T05:44:17.638Z,16.1
2019-01-24T05:45:20.060Z,16.2
2019-01-24T05:46:22.489Z,16.2
2019-01-24T05:47:24.635Z,16.2
2019-01-24T05:48:27.085Z,16.1
2019-01-24T05:49:29.528Z,16.2
2019-01-24T05:50:31.950Z,16.1
2019-01-24T05:51:34.112Z,16.2
2019-01-24T05:52:36.542Z,16.2
2019-01-24T05:53:38.675Z,16.2
2019-01-24T05:54:40.552Z,16.1
2019-01-24T05:55:42.974Z,16.2
2019-01-24T05:56:45.409Z,16.1
2019-01-24T05:57:47.543Z,16.1
2019-01-24T05:58:49.958Z,16.1
2019-01-24T05:59:51.826Z,16.2
2019-01-24T06:00:54.252Z,16.1
2019-01-24T06:01:57.238Z,16.1
2019-01-24T06:02:59.112Z,16.2
2019-01-24T06:04:01.553Z,16.2
2019-01-24T06:05:03.465Z,16.1
2019-01-24T06:06:05.615Z,16.2
2019-01-24T06:07:08.044Z,16.2
2019-01-24T06:08:10.487Z,16.2
2019-01-24T06:09:12.652Z,16.2
2019-01-24T06:10:15.087Z,16.1
2019-01-24T06:11:17.515Z,16.2
2019-01-24T06:12:19.676Z,16.1
2019-01-24T06:13:22.104Z,16.1
2019-01-24T06:14:24.528Z,16.2
2019-01-24T06:15:26.754Z,16.1
2019-01-24T06:16:29.240Z,16.1
2019-01-24T06:17:31.714Z,16.1
2019-01-24T06:18:33.920Z,16.2
2019-01-24T06:19:35.804Z,16
2019-01-24T06:20:37.682Z,16.1
2019-01-24T06:21:40.104Z,16.1
2019-01-24T06:22:42.563Z,16.2
2019-01-24T06:23:44.994Z,16.1
2019-01-24T06:24:47.143Z,16
2019-01-24T06:25:49.574Z,16.1
2019-01-24T06:26:51.704Z,16.1
2019-01-24T06:27:53.851Z,16.1
2019-01-24T06:28:55.733Z,16.1
2019-01-24T06:29:57.878Z,16.2
2019-01-24T06:31:00.008Z,16.1
2019-01-24T06:32:02.428Z,16.1
2019-01-24T06:33:04.860Z,16.1
2019-01-24T06:34:07.286Z,15.9
2019-01-24T06:35:09.717Z,16.1
2019-01-24T06:36:12.138Z,16.1
2019-01-24T06:37:14.575Z,16.1
2019-01-24T06:38:17.004Z,16.1
2019-01-24T06:39:19.444Z,15.9
2019-01-24T06:40:21.866Z,16.1
2019-01-24T06:41:24.024Z,16
2019-01-24T06:42:26.193Z,16
2019-01-24T06:43:28.617Z,16.1
2019-01-24T06:44:31.041Z,15.9
2019-01-24T06:45:33.464Z,16.1
2019-01-24T06:46:35.894Z,16.1
2019-01-24T06:47:38.041Z,16
2019-01-24T06:48:39.947Z,16
2019-01-24T06:49:42.370Z,15.9
2019-01-24T06:50:44.804Z,15.9
2019-01-24T06:51:47.238Z,16.1
2019-01-24T06:52:49.412Z,16
2019-01-24T06:53:51.574Z,16.1
2019-01-24T06:54:53.429Z,16
2019-01-24T06:55:55.852Z,16.1
2019-01-24T06:56:57.172Z,16
2019-01-24T06:57:59.341Z,16
2019-01-24T06:59:01.508Z,16.2
2019-01-24T07:00:03.933Z,16
2019-01-24T07:01:06.390Z,16.1
2019-01-24T07:02:08.554Z,16
2019-01-24T07:03:10.714Z,16.1
2019-01-24T07:04:12.854Z,16.2
2019-01-24T07:05:15.006Z,16.1
2019-01-24T07:06:16.646Z,16
2019-01-24T07:07:18.799Z,16
2019-01-24T07:08:21.232Z,16
2019-01-24T07:09:23.654Z,16
2019-01-24T07:10:25.806Z,16.1
2019-01-24T07:11:28.254Z,16.1
2019-01-24T07:12:30.686Z,16
2019-01-24T07:13:33.134Z,15.9
2019-01-24T07:14:35.293Z,16.1
2019-01-24T07:15:37.444Z,16
2019-01-24T07:16:39.877Z,15.9
2019-01-24T07:17:42.034Z,16
2019-01-24T07:18:44.463Z,16
2019-01-24T07:19:46.610Z,16
2019-01-24T07:20:48.465Z,16
2019-01-24T07:21:50.900Z,16
2019-01-24T07:22:53.314Z,15.9
2019-01-24T07:23:55.744Z,16
2019-01-24T07:24:57.894Z,16
2019-01-24T07:26:00.344Z,16
2019-01-24T07:27:02.496Z,16
2019-01-24T07:28:04.918Z,16
2019-01-24T07:29:07.352Z,16.1
2019-01-24T07:30:09.768Z,15.9
2019-01-24T07:31:12.205Z,16
2019-01-24T07:32:14.636Z,16
2019-01-24T07:33:16.770Z,16.1
2019-01-24T07:34:18.906Z,16
2019-01-24T07:35:21.055Z,16
2019-01-24T07:36:23.486Z,16
2019-01-24T07:37:25.637Z,16
2019-01-24T07:38:28.065Z,16
2019-01-24T07:39:30.505Z,15.9
2019-01-24T07:40:32.930Z,16
2019-01-24T07:41:34.795Z,16
2019-01-24T07:42:37.222Z,15.9
2019-01-24T07:43:39.642Z,15.9
2019-01-24T07:44:56.737Z,16
2019-01-24T07:45:59.160Z,16.1
2019-01-24T07:47:01.597Z,16
2019-01-24T07:48:04.039Z,16
2019-01-24T07:49:06.476Z,16
2019-01-24T07:50:08.914Z,15.9
2019-01-24T07:51:11.066Z,15.8
2019-01-24T07:52:13.510Z,16
2019-01-24T07:53:15.940Z,15.9
2019-01-24T07:54:18.110Z,16.1
2019-01-24T07:55:19.995Z,16
2019-01-24T07:56:22.120Z,16.1
2019-01-24T07:57:25.157Z,16
2019-01-24T07:58:27.312Z,16.1
2019-01-24T07:59:29.468Z,15.9
2019-01-24T08:00:31.915Z,15.9
2019-01-24T08:01:34.069Z,15.9
2019-01-24T08:02:36.217Z,16.1
2019-01-24T08:03:38.646Z,15.9
2019-01-24T08:04:41.069Z,15.9
2019-01-24T08:05:43.507Z,15.9
2019-01-24T08:06:45.930Z,16
2019-01-24T08:07:48.369Z,16
2019-01-24T08:08:50.531Z,16
2019-01-24T08:09:52.685Z,16.1
2019-01-24T08:10:54.825Z,15.8
2019-01-24T08:11:57.254Z,16
2019-01-24T08:12:59.678Z,15.9
2019-01-24T08:14:02.115Z,15.9
2019-01-24T08:15:04.531Z,16
2019-01-24T08:16:06.961Z,15.9
2019-01-24T08:17:09.394Z,15.8
2019-01-24T08:18:11.270Z,15.8
2019-01-24T08:19:13.685Z,15.7
2019-01-24T08:20:16.124Z,15.9
2019-01-24T08:21:18.569Z,15.9
2019-01-24T08:22:21.005Z,16
2019-01-24T08:23:23.424Z,16
2019-01-24T08:24:25.875Z,15.9
2019-01-24T08:25:28.294Z,16
2019-01-24T08:26:30.725Z,15.8
2019-01-24T08:27:33.154Z,16
2019-01-24T08:28:35.313Z,15.9
2019-01-24T08:29:37.727Z,16
2019-01-24T08:30:39.897Z,16
2019-01-24T08:31:42.051Z,15.9
2019-01-24T08:32:44.494Z,15.8
2019-01-24T08:33:46.933Z,16
2019-01-24T08:34:48.809Z,15.9
2019-01-24T08:35:51.231Z,16
2019-01-24T08:36:53.651Z,15.9
2019-01-24T08:37:56.082Z,15.9
2019-01-24T08:38:58.223Z,15.8
2019-01-24T08:40:00.649Z,15.9
2019-01-24T08:41:03.175Z,15.8
2019-01-24T08:42:05.599Z,15.9
2019-01-24T08:43:07.758Z,15.8
2019-01-24T08:44:10.185Z,15.8
2019-01-24T08:45:12.340Z,16
2019-01-24T08:46:14.507Z,15.8
2019-01-24T08:47:16.665Z,15.9
2019-01-24T08:48:19.105Z,15.9
2019-01-24T08:49:21.536Z,16
2019-01-24T08:50:23.949Z,16
2019-01-24T08:51:26.093Z,16
2019-01-24T08:52:28.523Z,16
2019-01-24T08:53:30.942Z,15.8
2019-01-24T08:54:32.803Z,15.9
2019-01-24T08:55:34.957Z,15.9
2019-01-24T08:56:37.134Z,15.9
2019-01-24T08:57:39.572Z,15.8
2019-01-24T08:58:41.741Z,15.9
2019-01-24T08:59:43.915Z,15.9
2019-01-24T09:00:45.773Z,16.1
2019-01-24T09:01:48.209Z,15.9
2019-01-24T09:02:50.340Z,15.9
2019-01-24T09:03:52.775Z,15.9
2019-01-24T09:04:55.191Z,15.9
2019-01-24T09:05:57.626Z,16
2019-01-24T09:06:59.751Z,15.9
2019-01-24T09:08:01.629Z,15.8
2019-01-24T09:09:03.475Z,16
2019-01-24T09:10:05.366Z,15.8
2019-01-24T09:11:07.279Z,15.8
2019-01-24T09:12:09.725Z,15.9
2019-01-24T09:13:11.903Z,15.8
2019-01-24T09:14:14.049Z,15.9
2019-01-24T09:15:16.482Z,15.8
2019-01-24T09:16:18.635Z,15.9
2019-01-24T09:17:20.515Z,15.9
2019-01-24T09:18:22.683Z,15.9
2019-01-24T09:19:24.569Z,15.9
2019-01-24T09:20:26.732Z,15.9
2019-01-24T09:21:29.166Z,15.8
2019-01-24T09:22:31.592Z,15.9
2019-01-24T09:23:34.012Z,16
2019-01-24T09:24:36.445Z,15.8
2019-01-24T09:25:38.865Z,15.8
2019-01-24T09:26:41.023Z,15.9
2019-01-24T09:27:43.181Z,16
2019-01-24T09:28:45.606Z,15.9
2019-01-24T09:29:48.049Z,15.8
2019-01-24T09:30:50.471Z,15.8
2019-01-24T09:31:52.902Z,15.8
2019-01-24T09:32:55.326Z,15.8
2019-01-24T09:33:57.751Z,15.9
2019-01-24T09:34:59.915Z,15.9
2019-01-24T09:36:02.344Z,15.8
2019-01-24T09:37:04.513Z,15.9
2019-01-24T09:38:06.395Z,15.8
2019-01-24T09:39:08.829Z,15.7
2019-01-24T09:40:10.953Z,15.9
2019-01-24T09:41:13.372Z,16
2019-01-24T09:42:15.803Z,15.9
2019-01-24T09:43:18.237Z,15.9
2019-01-24T09:44:20.395Z,15.9
2019-01-24T09:45:22.825Z,15.8
2019-01-24T09:46:25.253Z,15.8
2019-01-24T09:47:27.683Z,15.9
2019-01-24T09:48:30.141Z,15.8
2019-01-24T09:49:32.575Z,15.8
2019-01-24T09:50:34.742Z,15.9
2019-01-24T09:51:36.893Z,15.8
2019-01-24T09:52:39.047Z,16
2019-01-24T09:53:41.505Z,15.9
2019-01-24T09:54:43.926Z,15.8
2019-01-24T09:55:46.361Z,15.8
2019-01-24T09:56:48.497Z,15.9
2019-01-24T09:57:50.657Z,16
2019-01-24T09:58:52.783Z,15.8
2019-01-24T09:59:54.931Z,15.9
2019-01-24T10:00:56.804Z,15.9
2019-01-24T10:01:58.683Z,15.8
2019-01-24T10:03:00.845Z,15.9
2019-01-24T10:04:02.993Z,15.9
2019-01-24T10:05:05.419Z,15.8
2019-01-24T10:06:07.858Z,15.9
2019-01-24T10:07:10.020Z,15.9
2019-01-24T10:08:12.445Z,15.9
2019-01-24T10:09:14.875Z,15.8
2019-01-24T10:10:17.308Z,15.8
2019-01-24T10:12:24.715Z,15.8
2019-01-24T10:13:26.874Z,15.9
2019-01-24T10:14:29.305Z,15.8
2019-01-24T10:15:31.451Z,15.8
2019-01-24T10:16:33.882Z,15.8
2019-01-24T10:17:36.054Z,15.8
2019-01-24T10:18:38.479Z,15.8
2019-01-24T10:19:40.906Z,15.8
2019-01-24T10:20:42.765Z,15.9
2019-01-24T10:21:44.923Z,15.8
2019-01-24T10:22:47.084Z,15.9
2019-01-24T10:23:49.517Z,15.9
2019-01-24T10:24:51.401Z,15.9
2019-01-24T10:25:53.832Z,15.8
2019-01-24T10:26:55.706Z,15.9
2019-01-24T10:27:57.833Z,15.8
2019-01-24T10:29:00.264Z,15.8
2019-01-24T10:30:02.117Z,15.8
2019-01-24T10:31:04.546Z,16
2019-01-24T10:32:06.705Z,15.8
2019-01-24T10:33:08.593Z,15.8
2019-01-24T10:34:11.020Z,15.8
2019-01-24T10:35:13.451Z,15.8
2019-01-24T10:36:15.891Z,15.8
2019-01-24T10:37:18.325Z,15.9
2019-01-24T10:38:20.765Z,16
2019-01-24T10:39:22.625Z,16
2019-01-24T10:40:24.800Z,15.8
2019-01-24T10:41:28.700Z,15.9
2019-01-24T10:42:31.134Z,15.8
2019-01-24T10:43:33.562Z,15.8
2019-01-24T10:44:35.989Z,15.8
2019-01-24T10:45:38.430Z,15.9
2019-01-24T10:46:40.555Z,15.9
2019-01-24T10:47:42.706Z,15.9
2019-01-24T10:48:45.136Z,15.9
2019-01-24T10:49:47.566Z,15.7
2019-01-24T10:50:49.996Z,15.7
2019-01-24T10:51:52.425Z,15.9
2019-01-24T10:52:54.574Z,15.8
2019-01-24T10:53:57.000Z,15.8
2019-01-24T10:54:59.425Z,15.8
2019-01-24T10:56:01.585Z,16
2019-01-24T10:57:04.102Z,15.8
2019-01-24T10:58:06.456Z,15.8
2019-01-24T10:59:08.879Z,15.8
2019-01-24T11:00:11.106Z,15.8
2019-01-24T11:01:13.547Z,15.9
2019-01-24T11:02:15.964Z,15.8
2019-01-24T11:03:18.115Z,15.8
2019-01-24T11:04:20.246Z,15.8
2019-01-24T11:05:22.693Z,15.7
2019-01-24T11:06:25.131Z,15.8
2019-01-24T11:07:27.566Z,15.9
2019-01-24T11:08:29.995Z,15.9
2019-01-24T11:09:32.144Z,15.8
2019-01-24T11:10:34.303Z,15.8
2019-01-24T11:11:36.481Z,15.9
2019-01-24T11:12:38.631Z,15.9
2019-01-24T11:13:41.107Z,15.8
2019-01-24T11:14:43.535Z,15.9
2019-01-24T11:15:45.694Z,15.8
2019-01-24T11:16:47.833Z,15.9
2019-01-24T11:17:50.262Z,15.9
2019-01-24T11:18:52.686Z,15.9
2019-01-24T11:19:55.117Z,15.8
2019-01-24T11:20:57.535Z,15.8
2019-01-24T11:21:59.686Z,15.8
2019-01-24T11:23:02.113Z,15.9
2019-01-24T11:24:03.984Z,15.8
2019-01-24T11:25:06.416Z,16
2019-01-24T11:26:08.844Z,15.9
2019-01-24T11:27:11.279Z,15.8
2019-01-24T11:28:13.711Z,15.8
2019-01-24T11:29:15.867Z,15.9
2019-01-24T11:30:18.016Z,15.8
2019-01-24T11:31:20.169Z,15.8
2019-01-24T11:32:22.063Z,15.8
2019-01-24T11:33:24.491Z,15.7
2019-01-24T11:34:26.931Z,15.8
2019-01-24T11:35:29.350Z,15.9
2019-01-24T11:36:31.528Z,15.9
2019-01-24T11:37:33.705Z,15.8
2019-01-24T11:38:35.884Z,15.8
2019-01-24T11:39:37.770Z,15.8
2019-01-24T11:40:40.191Z,15.8
2019-01-24T11:41:42.066Z,15.9
2019-01-24T11:42:44.493Z,16
2019-01-24T11:43:46.925Z,15.9
2019-01-24T11:44:49.393Z,15.9
2019-01-24T11:45:51.835Z,15.9
2019-01-24T11:46:54.249Z,15.8
2019-01-24T11:47:56.676Z,15.8
2019-01-24T11:48:58.805Z,15.8
2019-01-24T11:50:01.237Z,15.9
2019-01-24T11:51:03.405Z,15.8
2019-01-24T11:52:05.547Z,15.8
2019-01-24T11:53:07.700Z,15.8
2019-01-24T11:54:10.136Z,15.8
2019-01-24T11:55:12.561Z,15.8
2019-01-24T11:56:14.984Z,15.8
2019-01-24T11:57:17.125Z,15.8
2019-01-24T11:58:19.551Z,15.8
2019-01-24T11:59:21.989Z,15.8
2019-01-24T12:00:24.432Z,15.8
2019-01-24T12:01:26.316Z,15.8
2019-01-24T12:02:28.786Z,15.8
2019-01-24T12:03:31.219Z,15.9
2019-01-24T12:04:33.372Z,15.8
2019-01-24T12:05:35.514Z,15.8
2019-01-24T12:06:37.661Z,15.8
2019-01-24T12:07:40.088Z,15.8
2019-01-24T12:08:42.250Z,15.8
2019-01-24T12:09:44.402Z,15.9
2019-01-24T12:10:46.843Z,15.7
2019-01-24T12:11:49.268Z,15.8
2019-01-24T12:12:51.695Z,15.8
2019-01-24T12:13:53.585Z,15.8
2019-01-24T12:14:55.733Z,15.8
2019-01-24T12:15:57.884Z,15.8
2019-01-24T12:17:00.307Z,15.8
2019-01-24T12:18:02.506Z,15.8
2019-01-24T12:19:04.646Z,15.8
2019-01-24T12:20:06.800Z,15.8
2019-01-24T12:21:09.238Z,15.8
2019-01-24T12:22:11.366Z,15.8
2019-01-24T12:23:13.797Z,15.8
2019-01-24T12:24:16.223Z,15.8
2019-01-24T12:25:18.645Z,15.8
2019-01-24T12:26:20.520Z,15.9
2019-01-24T12:27:22.952Z,15.8
2019-01-24T12:28:25.385Z,15.9
2019-01-24T12:29:27.816Z,15.8
2019-01-24T12:30:30.246Z,15.8
2019-01-24T12:31:32.377Z,15.9
2019-01-24T12:32:34.798Z,15.9
2019-01-24T12:33:37.232Z,15.8
2019-01-24T12:34:39.388Z,15.8
2019-01-24T12:35:41.809Z,15.8
2019-01-24T12:36:44.255Z,15.8
2019-01-24T12:37:46.685Z,15.8
2019-01-24T12:38:48.866Z,15.8
2019-01-24T12:39:50.767Z,15.8
2019-01-24T12:40:52.939Z,15.8
2019-01-24T12:41:55.083Z,16
2019-01-24T12:42:57.238Z,15.8
2019-01-24T12:43:59.133Z,15.9
2019-01-24T12:45:01.569Z,15.8
2019-01-24T12:46:04.006Z,15.8
2019-01-24T12:47:06.429Z,15.8
2019-01-24T12:48:08.864Z,15.9
2019-01-24T12:49:11.288Z,15.8
2019-01-24T12:50:13.736Z,15.9
2019-01-24T12:51:15.886Z,15.8
2019-01-24T12:52:18.318Z,15.8
2019-01-24T12:53:20.767Z,15.7
2019-01-24T12:54:22.914Z,15.8
2019-01-24T12:55:25.361Z,15.9
2019-01-24T12:56:27.514Z,15.8
2019-01-24T12:57:29.957Z,15.8
2019-01-24T12:58:32.378Z,15.8
2019-01-24T12:59:34.802Z,15.8
2019-01-24T13:00:37.250Z,15.8
2019-01-24T13:01:39.683Z,15.8
2019-01-24T13:02:42.114Z,15.7
2019-01-24T13:03:44.537Z,15.8
2019-01-24T13:04:46.987Z,15.8
2019-01-24T13:05:49.140Z,15.8
2019-01-24T13:06:51.003Z,15.8
2019-01-24T13:07:53.169Z,15.8
2019-01-24T13:08:55.339Z,15.8
2019-01-24T13:09:57.757Z,15.8
2019-01-24T13:11:00.196Z,15.8
2019-01-24T13:12:02.084Z,15.8
2019-01-24T13:13:04.243Z,15.8
2019-01-24T13:14:06.422Z,15.8
2019-01-24T13:15:08.576Z,15.8
2019-01-24T13:16:11.015Z,15.8
2019-01-24T13:17:13.441Z,15.8
2019-01-24T13:18:15.877Z,15.8
2019-01-24T13:19:18.032Z,15.8
2019-01-24T13:20:20.456Z,15.8
2019-01-24T13:21:22.948Z,15.8
2019-01-24T13:22:25.380Z,15.9
2019-01-24T13:23:27.816Z,15.8
2019-01-24T13:24:29.991Z,15.8
2019-01-24T13:25:32.173Z,15.8
2019-01-24T13:26:34.338Z,15.8
2019-01-24T13:27:36.217Z,15.8
2019-01-24T13:28:38.376Z,15.8
2019-01-24T13:29:40.539Z,15.8
2019-01-24T13:30:42.959Z,15.8
2019-01-24T13:31:45.420Z,15.8
2019-01-24T13:32:47.852Z,15.7
2019-01-24T13:33:50.036Z,15.9
2019-01-24T13:34:52.463Z,15.8
2019-01-24T13:35:54.904Z,15.7
2019-01-24T13:36:57.334Z,15.8
2019-01-24T13:37:59.494Z,15.9
2019-01-24T13:39:01.395Z,15.8
2019-01-24T13:40:03.829Z,15.9
2019-01-24T13:41:05.999Z,15.7
2019-01-24T13:42:07.590Z,15.8
2019-01-24T13:43:09.458Z,15.8
2019-01-24T13:44:11.079Z,15.8
2019-01-24T13:45:13.243Z,15.8
2019-01-24T13:46:15.676Z,15.8
2019-01-24T13:47:18.116Z,15.7
2019-01-24T13:48:20.546Z,15.8
2019-01-24T13:49:22.974Z,15.8
2019-01-24T13:50:25.442Z,15.8
2019-01-24T13:51:27.866Z,15.8
2019-01-24T13:52:30.015Z,15.8
2019-01-24T13:53:32.171Z,15.7
2019-01-24T13:54:34.322Z,15.8
2019-01-24T13:55:36.473Z,15.8
2019-01-24T13:56:40.282Z,15.8
2019-01-24T13:57:42.710Z,15.8